sensor_id;sensor_type;location;lat;lon;timestamp;pressure;altitude;pressure_sealevel;temperature;humidity
46001;BME280;72226;48.272;11.180;2023-09-30T00:02:20;96670.19;;;16.12;74.18
46001;BME280;72226;48.272;11.180;2023-09-30T00:04:45;96663.16;;;16.19;74.13
46001;BME280;72226;48.272;11.180;2023-09-30T00:07:11;96680.19;;;16.20;74.27
46001;BME280;72226;48.272;11.180;2023-09-30T00:09:36;96673.34;;;16.14;74.90
46001;BME280;72226;48.272;11.180;2023-09-30T00:12:02;96672.84;;;16.20;75.03
46001;BME280;72226;48.272;11.180;2023-09-30T00:14:28;96673.31;;;16.23;74.98
46001;BME280;72226;48.272;11.180;2023-09-30T00:16:54;96683.31;;;16.31;75.15
46001;BME280;72226;48.272;11.180;2023-09-30T00:19:20;96675.22;;;16.31;75.09
46001;BME280;72226;48.272;11.180;2023-09-30T00:21:47;96680.63;;;16.31;75.61
46001;BME280;72226;48.272;11.180;2023-09-30T00:24:13;96679.97;;;16.34;75.88
46001;BME280;72226;48.272;11.180;2023-09-30T00:26:39;96675.00;;;16.36;75.97
46001;BME280;72226;48.272;11.180;2023-09-30T00:29:04;96671.06;;;16.33;76.13
46001;BME280;72226;48.272;11.180;2023-09-30T00:31:31;96678.53;;;16.36;76.14
46001;BME280;72226;48.272;11.180;2023-09-30T00:33:57;96684.72;;;16.37;76.17
46001;BME280;72226;48.272;11.180;2023-09-30T00:36:22;96680.75;;;16.34;76.27
46001;BME280;72226;48.272;11.180;2023-09-30T00:38:48;96685.03;;;16.35;76.20
46001;BME280;72226;48.272;11.180;2023-09-30T00:41:13;96680.41;;;16.36;76.34
46001;BME280;72226;48.272;11.180;2023-09-30T00:43:39;96681.50;;;16.43;76.16
46001;BME280;72226;48.272;11.180;2023-09-30T00:48:36;96686.41;;;16.50;76.11
46001;BME280;72226;48.272;11.180;2023-09-30T00:51:02;96687.19;;;16.51;76.30
46001;BME280;72226;48.272;11.180;2023-09-30T00:53:28;96686.28;;;16.47;76.06
46001;BME280;72226;48.272;11.180;2023-09-30T00:55:55;96691.22;;;16.44;76.07
46001;BME280;72226;48.272;11.180;2023-09-30T00:58:22;96694.25;;;16.43;75.80
46001;BME280;72226;48.272;11.180;2023-09-30T01:00:51;96692.06;;;16.36;76.59
46001;BME280;72226;48.272;11.180;2023-09-30T01:03:16;96683.94;;;16.36;76.90
46001;BME280;72226;48.272;11.180;2023-09-30T01:05:42;96680.63;;;16.31;77.61
46001;BME280;72226;48.272;11.180;2023-09-30T01:08:08;96676.03;;;16.23;78.47
46001;BME280;72226;48.272;11.180;2023-09-30T01:10:33;96675.69;;;16.24;78.61
46001;BME280;72226;48.272;11.180;2023-09-30T01:12:59;96679.97;;;16.34;78.34
46001;BME280;72226;48.272;11.180;2023-09-30T01:15:24;96668.50;;;16.37;77.94
46001;BME280;72226;48.272;11.180;2023-09-30T01:17:49;96674.03;;;16.40;78.18
46001;BME280;72226;48.272;11.180;2023-09-30T01:20:15;96671.69;;;16.30;79.14
46001;BME280;72226;48.272;11.180;2023-09-30T01:22:46;96673.22;;;16.49;78.31
46001;BME280;72226;48.272;11.180;2023-09-30T01:25:11;96676.41;;;16.42;79.00
46001;BME280;72226;48.272;11.180;2023-09-30T01:27:37;96671.16;;;16.46;78.43
46001;BME280;72226;48.272;11.180;2023-09-30T01:30:02;96679.06;;;16.51;78.12
46001;BME280;72226;48.272;11.180;2023-09-30T01:32:28;96684.78;;;16.58;77.88
46001;BME280;72226;48.272;11.180;2023-09-30T01:34:53;96680.47;;;16.57;78.20
46001;BME280;72226;48.272;11.180;2023-09-30T01:37:19;96684.91;;;16.61;77.76
46001;BME280;72226;48.272;11.180;2023-09-30T01:39:44;96682.34;;;16.65;77.32
46001;BME280;72226;48.272;11.180;2023-09-30T01:42:11;96680.41;;;16.65;77.30
46001;BME280;72226;48.272;11.180;2023-09-30T01:44:36;96686.78;;;16.70;77.16
46001;BME280;72226;48.272;11.180;2023-09-30T01:47:01;96679.75;;;16.69;77.14
46001;BME280;72226;48.272;11.180;2023-09-30T01:49:27;96678.19;;;16.67;76.76
46001;BME280;72226;48.272;11.180;2023-09-30T01:51:52;96673.38;;;16.73;76.83
46001;BME280;72226;48.272;11.180;2023-09-30T01:54:18;96678.66;;;16.70;76.97
46001;BME280;72226;48.272;11.180;2023-09-30T01:56:43;96670.25;;;16.62;77.64
46001;BME280;72226;48.272;11.180;2023-09-30T01:59:09;96677.84;;;16.69;77.17
46001;BME280;72226;48.272;11.180;2023-09-30T02:01:34;96675.06;;;16.57;77.50
46001;BME280;72226;48.272;11.180;2023-09-30T02:03:59;96684.97;;;16.53;77.62
46001;BME280;72226;48.272;11.180;2023-09-30T02:06:25;96686.56;;;16.45;77.95
46001;BME280;72226;48.272;11.180;2023-09-30T02:08:50;96687.00;;;16.56;77.04
46001;BME280;72226;48.272;11.180;2023-09-30T02:11:16;96675.25;;;16.52;77.49
46001;BME280;72226;48.272;11.180;2023-09-30T02:13:42;96678.81;;;16.43;78.09
46001;BME280;72226;48.272;11.180;2023-09-30T02:16:13;96681.97;;;16.46;77.89
46001;BME280;72226;48.272;11.180;2023-09-30T02:18:39;96689.63;;;16.43;77.99
46001;BME280;72226;48.272;11.180;2023-09-30T02:21:06;96697.47;;;16.36;78.15
46001;BME280;72226;48.272;11.180;2023-09-30T02:23:33;96691.34;;;16.48;77.65
46001;BME280;72226;48.272;11.180;2023-09-30T02:25:58;96689.53;;;16.61;76.83
46001;BME280;72226;48.272;11.180;2023-09-30T02:28:23;96691.31;;;16.57;76.32
46001;BME280;72226;48.272;11.180;2023-09-30T02:30:49;96687.00;;;16.56;76.50
46001;BME280;72226;48.272;11.180;2023-09-30T02:33:14;96681.28;;;16.57;76.55
46001;BME280;72226;48.272;11.180;2023-09-30T02:35:44;96685.44;;;16.55;77.10
46001;BME280;72226;48.272;11.180;2023-09-30T02:38:11;96684.22;;;16.43;77.25
46001;BME280;72226;48.272;11.180;2023-09-30T02:40:36;96687.88;;;16.39;77.38
46001;BME280;72226;48.272;11.180;2023-09-30T02:43:02;96685.38;;;16.34;77.78
46001;BME280;72226;48.272;11.180;2023-09-30T02:45:27;96686.00;;;16.39;77.70
46001;BME280;72226;48.272;11.180;2023-09-30T02:47:53;96681.03;;;16.41;77.20
46001;BME280;72226;48.272;11.180;2023-09-30T02:50:18;96686.09;;;16.52;76.23
46001;BME280;72226;48.272;11.180;2023-09-30T02:52:44;96688.69;;;16.39;76.89
46001;BME280;72226;48.272;11.180;2023-09-30T02:55:10;96684.50;;;16.51;76.00
46001;BME280;72226;48.272;11.180;2023-09-30T02:57:36;96683.78;;;16.33;77.37
46001;BME280;72226;48.272;11.180;2023-09-30T03:00:06;96680.94;;;16.29;77.54
46001;BME280;72226;48.272;11.180;2023-09-30T03:02:55;96682.56;;;16.22;77.99
46001;BME280;72226;48.272;11.180;2023-09-30T03:05:21;96682.56;;;16.22;77.91
46001;BME280;72226;48.272;11.180;2023-09-30T03:07:47;96686.50;;;16.24;78.28
46001;BME280;72226;48.272;11.180;2023-09-30T03:10:13;96686.25;;;16.17;78.37
46001;BME280;72226;48.272;11.180;2023-09-30T03:12:46;96686.25;;;16.17;78.66
46001;BME280;72226;48.272;11.180;2023-09-30T03:15:12;96684.81;;;16.19;78.64
46001;BME280;72226;48.272;11.180;2023-09-30T03:17:38;96682.41;;;16.18;78.73
46001;BME280;72226;48.272;11.180;2023-09-30T03:20:03;96685.59;;;16.20;78.51
46001;BME280;72226;48.272;11.180;2023-09-30T03:22:41;96678.47;;;16.15;79.25
46001;BME280;72226;48.272;11.180;2023-09-30T03:25:09;96679.88;;;16.22;78.79
46001;BME280;72226;48.272;11.180;2023-09-30T03:27:34;96687.47;;;16.28;78.37
46001;BME280;72226;48.272;11.180;2023-09-30T03:30:04;96682.72;;;16.25;78.31
46001;BME280;72226;48.272;11.180;2023-09-30T03:32:31;96686.69;;;16.28;77.97
46001;BME280;72226;48.272;11.180;2023-09-30T03:35:01;96688.41;;;16.32;77.85
46001;BME280;72226;48.272;11.180;2023-09-30T03:37:27;96692.06;;;16.36;77.81
46001;BME280;72226;48.272;11.180;2023-09-30T03:39:55;96696.47;;;16.41;76.94
46001;BME280;72226;48.272;11.180;2023-09-30T03:42:21;96700.22;;;16.28;77.70
46001;BME280;72226;48.272;11.180;2023-09-30T03:44:46;96704.78;;;16.36;77.93
46001;BME280;72226;48.272;11.180;2023-09-30T03:47:13;96699.06;;;16.37;77.62
46001;BME280;72226;48.272;11.180;2023-09-30T03:49:38;96695.19;;;16.47;77.05
46001;BME280;72226;48.272;11.180;2023-09-30T03:52:04;96695.84;;;16.44;76.79
46001;BME280;72226;48.272;11.180;2023-09-30T03:54:31;96694.94;;;16.31;77.66
46001;BME280;72226;48.272;11.180;2023-09-30T03:56:56;96694.31;;;16.26;78.21
46001;BME280;72226;48.272;11.180;2023-09-30T03:59:22;96680.81;;;16.17;78.81
46001;BME280;72226;48.272;11.180;2023-09-30T04:01:48;96691.16;;;16.15;79.01
46001;BME280;72226;48.272;11.180;2023-09-30T04:04:13;96704.34;;;16.25;78.40
46001;BME280;72226;48.272;11.180;2023-09-30T04:06:39;96723.34;;;16.16;78.93
46001;BME280;72226;48.272;11.180;2023-09-30T04:09:05;96708.38;;;16.19;78.68
46001;BME280;72226;48.272;11.180;2023-09-30T04:11:37;96718.44;;;16.10;79.22
46001;BME280;72226;48.272;11.180;2023-09-30T04:14:06;96717.47;;;16.06;79.75
46001;BME280;72226;48.272;11.180;2023-09-30T04:16:32;96695.81;;;16.06;79.76
46001;BME280;72226;48.272;11.180;2023-09-30T04:18:57;96697.44;;;16.07;79.40
46001;BME280;72226;48.272;11.180;2023-09-30T04:21:23;96706.22;;;15.95;79.84
46001;BME280;72226;48.272;11.180;2023-09-30T04:23:48;96709.09;;;15.90;80.60
46001;BME280;72226;48.272;11.180;2023-09-30T04:26:14;96711.16;;;15.84;80.80
46001;BME280;72226;48.272;11.180;2023-09-30T04:28:40;96708.78;;;15.83;81.11
46001;BME280;72226;48.272;11.180;2023-09-30T04:31:05;96707.19;;;15.73;81.74
46001;BME280;72226;48.272;11.180;2023-09-30T04:33:33;96700.84;;;15.69;81.99
46001;BME280;72226;48.272;11.180;2023-09-30T04:36:00;96706.09;;;15.65;82.06
46001;BME280;72226;48.272;11.180;2023-09-30T04:38:25;96702.59;;;15.65;82.16
46001;BME280;72226;48.272;11.180;2023-09-30T04:40:51;96710.53;;;15.70;81.83
46001;BME280;72226;48.272;11.180;2023-09-30T04:43:17;96715.00;;;15.57;82.44
46001;BME280;72226;48.272;11.180;2023-09-30T04:45:43;96716.75;;;15.62;82.67
46001;BME280;72226;48.272;11.180;2023-09-30T04:48:08;96715.13;;;15.61;82.83
46001;BME280;72226;48.272;11.180;2023-09-30T04:50:34;96716.25;;;15.60;82.71
46001;BME280;72226;48.272;11.180;2023-09-30T04:52:59;96712.91;;;15.63;82.68
46001;BME280;72226;48.272;11.180;2023-09-30T04:55:25;96710.06;;;15.59;82.72
46001;BME280;72226;48.272;11.180;2023-09-30T04:57:51;96709.56;;;15.66;82.20
46001;BME280;72226;48.272;11.180;2023-09-30T05:00:19;96706.09;;;15.57;82.75
46001;BME280;72226;48.272;11.180;2023-09-30T05:02:50;96721.66;;;15.60;82.55
46001;BME280;72226;48.272;11.180;2023-09-30T05:05:15;96725.97;;;15.52;83.06
46001;BME280;72226;48.272;11.180;2023-09-30T05:07:41;96724.88;;;15.44;83.74
46001;BME280;72226;48.272;11.180;2023-09-30T05:10:07;96713.72;;;15.37;84.38
46001;BME280;72226;48.272;11.180;2023-09-30T05:12:37;96719.13;;;15.37;84.47
46001;BME280;72226;48.272;11.180;2023-09-30T05:15:03;96732.47;;;15.34;84.61
46001;BME280;72226;48.272;11.180;2023-09-30T05:17:29;96739.50;;;15.26;84.97
46001;BME280;72226;48.272;11.180;2023-09-30T05:19:56;96745.84;;;15.21;85.10
46001;BME280;72226;48.272;11.180;2023-09-30T05:22:22;96744.91;;;15.26;84.87
46001;BME280;72226;48.272;11.180;2023-09-30T05:24:51;96745.06;;;15.38;84.17
46001;BME280;72226;48.272;11.180;2023-09-30T05:27:17;96751.72;;;15.49;83.26
46001;BME280;72226;48.272;11.180;2023-09-30T05:29:43;96763.78;;;15.52;83.13
46001;BME280;72226;48.272;11.180;2023-09-30T05:32:08;96769.53;;;15.42;83.80
46001;BME280;72226;48.272;11.180;2023-09-30T05:34:34;96779.06;;;15.30;84.15
46001;BME280;72226;48.272;11.180;2023-09-30T05:36:59;96777.47;;;15.38;83.63
46001;BME280;72226;48.272;11.180;2023-09-30T05:39:24;96786.41;;;15.56;82.41
46001;BME280;72226;48.272;11.180;2023-09-30T05:41:50;96781.00;;;15.65;81.49
46001;BME280;72226;48.272;11.180;2023-09-30T05:44:16;96778.75;;;15.49;82.30
46001;BME280;72226;48.272;11.180;2023-09-30T05:46:41;96778.75;;;15.41;82.75
46001;BME280;72226;48.272;11.180;2023-09-30T05:49:10;96768.59;;;15.38;83.49
46001;BME280;72226;48.272;11.180;2023-09-30T05:51:39;96758.22;;;15.40;83.20
46001;BME280;72226;48.272;11.180;2023-09-30T05:54:06;96763.50;;;15.45;82.61
46001;BME280;72226;48.272;11.180;2023-09-30T05:56:32;96765.06;;;15.46;82.58
46001;BME280;72226;48.272;11.180;2023-09-30T05:58:58;96771.44;;;15.50;82.40
46001;BME280;72226;48.272;11.180;2023-09-30T06:01:23;96767.47;;;15.56;83.60
46001;BME280;72226;48.272;11.180;2023-09-30T06:03:49;96774.63;;;15.61;82.90
46001;BME280;72226;48.272;11.180;2023-09-30T06:06:14;96780.16;;;15.64;81.72
46001;BME280;72226;48.272;11.180;2023-09-30T06:08:44;96778.59;;;15.63;82.19
46001;BME280;72226;48.272;11.180;2023-09-30T06:11:20;96781.81;;;15.74;80.59
46001;BME280;72226;48.272;11.180;2023-09-30T06:13:50;96786.72;;;15.72;80.91
46001;BME280;72226;48.272;11.180;2023-09-30T06:16:16;96791.34;;;15.80;80.53
46001;BME280;72226;48.272;11.180;2023-09-30T06:18:41;96790.06;;;15.78;80.52
46001;BME280;72226;48.272;11.180;2023-09-30T06:21:07;96802.16;;;15.71;81.70
46001;BME280;72226;48.272;11.180;2023-09-30T06:23:35;96809.50;;;15.80;80.71
46001;BME280;72226;48.272;11.180;2023-09-30T06:26:00;96814.56;;;15.98;79.32
46001;BME280;72226;48.272;11.180;2023-09-30T06:28:27;96810.09;;;16.03;78.87
46001;BME280;72226;48.272;11.180;2023-09-30T06:30:56;96807.22;;;16.08;79.08
46001;BME280;72226;48.272;11.180;2023-09-30T06:33:21;96803.53;;;16.21;78.71
46001;BME280;72226;48.272;11.180;2023-09-30T06:35:46;96789.19;;;16.29;78.32
46001;BME280;72226;48.272;11.180;2023-09-30T06:38:18;96788.22;;;16.42;77.56
46001;BME280;72226;48.272;11.180;2023-09-30T06:40:45;96799.13;;;16.63;76.33
46001;BME280;72226;48.272;11.180;2023-09-30T06:43:13;96816.13;;;16.81;76.21
46001;BME280;72226;48.272;11.180;2023-09-30T06:45:41;96809.03;;;16.98;74.85
46001;BME280;72226;48.272;11.180;2023-09-30T06:48:07;96801.47;;;17.12;74.70
46001;BME280;72226;48.272;11.180;2023-09-30T06:50:36;96805.16;;;17.28;73.93
46001;BME280;72226;48.272;11.180;2023-09-30T06:53:01;96812.84;;;17.26;73.22
46001;BME280;72226;48.272;11.180;2023-09-30T06:55:26;96817.94;;;17.28;72.97
46001;BME280;72226;48.272;11.180;2023-09-30T06:57:54;96827.38;;;17.22;72.22
46001;BME280;72226;48.272;11.180;2023-09-30T07:00:19;96830.03;;;17.30;72.23
46001;BME280;72226;48.272;11.180;2023-09-30T07:02:45;96825.53;;;17.34;71.92
46001;BME280;72226;48.272;11.180;2023-09-30T07:05:12;96817.56;;;17.38;72.09
46001;BME280;72226;48.272;11.180;2023-09-30T07:07:38;96832.66;;;17.48;71.92
46001;BME280;72226;48.272;11.180;2023-09-30T07:10:07;96832.66;;;17.48;71.73
46001;BME280;72226;48.272;11.180;2023-09-30T07:12:33;96827.94;;;17.36;71.86
46001;BME280;72226;48.272;11.180;2023-09-30T07:15:01;96826.09;;;17.49;71.69
46001;BME280;72226;48.272;11.180;2023-09-30T07:17:27;96824.09;;;17.58;70.91
46001;BME280;72226;48.272;11.180;2023-09-30T07:19:53;96838.00;;;17.56;71.31
46001;BME280;72226;48.272;11.180;2023-09-30T07:22:18;96849.00;;;17.30;71.44
46001;BME280;72226;48.272;11.180;2023-09-30T07:24:44;96840.63;;;17.23;71.93
46001;BME280;72226;48.272;11.180;2023-09-30T07:27:09;96842.19;;;17.24;72.41
46001;BME280;72226;48.272;11.180;2023-09-30T07:29:35;96847.88;;;17.31;72.05
46001;BME280;72226;48.272;11.180;2023-09-30T07:32:00;96859.16;;;17.42;71.36
46001;BME280;72226;48.272;11.180;2023-09-30T07:34:25;96865.00;;;17.53;70.53
46001;BME280;72226;48.272;11.180;2023-09-30T07:36:51;96867.06;;;17.56;71.08
46001;BME280;72226;48.272;11.180;2023-09-30T07:39:16;96874.13;;;17.69;70.91
46001;BME280;72226;48.272;11.180;2023-09-30T07:41:42;96863.91;;;17.45;71.05
46001;BME280;72226;48.272;11.180;2023-09-30T07:44:08;96861.47;;;17.52;70.56
46001;BME280;72226;48.272;11.180;2023-09-30T07:46:34;96865.25;;;17.60;69.21
46001;BME280;72226;48.272;11.180;2023-09-30T07:49:00;96874.25;;;17.52;69.06
46001;BME280;72226;48.272;11.180;2023-09-30T07:51:26;96873.75;;;17.50;69.70
46001;BME280;72226;48.272;11.180;2023-09-30T07:53:51;96881.31;;;17.44;70.09
46001;BME280;72226;48.272;11.180;2023-09-30T07:56:17;96873.41;;;17.60;69.52
46001;BME280;72226;48.272;11.180;2023-09-30T07:58:42;96852.38;;;17.57;68.80
46001;BME280;72226;48.272;11.180;2023-09-30T08:01:08;96855.63;;;17.71;69.34
46001;BME280;72226;48.272;11.180;2023-09-30T08:03:33;96865.91;;;17.87;68.70
46001;BME280;72226;48.272;11.180;2023-09-30T08:06:00;96867.00;;;18.07;67.48
46001;BME280;72226;48.272;11.180;2023-09-30T08:08:25;96865.38;;;18.27;67.12
46001;BME280;72226;48.272;11.180;2023-09-30T08:10:51;96859.97;;;18.27;65.75
46001;BME280;72226;48.272;11.180;2023-09-30T08:13:21;96857.97;;;18.36;65.40
46001;BME280;72226;48.272;11.180;2023-09-30T08:15:46;96867.50;;;18.54;64.98
46001;BME280;72226;48.272;11.180;2023-09-30T08:18:12;96870.22;;;18.54;65.03
46001;BME280;72226;48.272;11.180;2023-09-30T08:20:37;96867.16;;;18.77;63.99
46001;BME280;72226;48.272;11.180;2023-09-30T08:23:03;96880.41;;;18.90;63.17
46001;BME280;72226;48.272;11.180;2023-09-30T08:25:28;96882.78;;;18.92;62.97
46001;BME280;72226;48.272;11.180;2023-09-30T08:27:54;96875.53;;;18.96;63.07
46001;BME280;72226;48.272;11.180;2023-09-30T08:30:19;96883.03;;;19.11;62.21
46001;BME280;72226;48.272;11.180;2023-09-30T08:32:45;96882.91;;;19.32;61.76
46001;BME280;72226;48.272;11.180;2023-09-30T08:35:11;96880.44;;;19.27;61.31
46001;BME280;72226;48.272;11.180;2023-09-30T08:37:39;96879.88;;;19.34;61.56
46001;BME280;72226;48.272;11.180;2023-09-30T08:40:05;96886.88;;;19.35;61.13
46001;BME280;72226;48.272;11.180;2023-09-30T08:42:32;96894.38;;;19.26;61.03
46001;BME280;72226;48.272;11.180;2023-09-30T08:44:59;96901.63;;;19.34;61.38
46001;BME280;72226;48.272;11.180;2023-09-30T08:47:26;96903.06;;;18.95;61.52
46001;BME280;72226;48.272;11.180;2023-09-30T08:49:53;96899.34;;;19.11;60.93
46001;BME280;72226;48.272;11.180;2023-09-30T08:52:22;96893.25;;;19.14;60.86
46001;BME280;72226;48.272;11.180;2023-09-30T08:54:47;96890.19;;;19.16;60.93
46001;BME280;72226;48.272;11.180;2023-09-30T08:57:14;96903.56;;;19.21;60.48
46001;BME280;72226;48.272;11.180;2023-09-30T08:59:42;96891.88;;;19.08;61.11
46001;BME280;72226;48.272;11.180;2023-09-30T09:02:09;96890.97;;;19.04;60.13
46001;BME280;72226;48.272;11.180;2023-09-30T09:04:38;96904.13;;;19.14;60.48
46001;BME280;72226;48.272;11.180;2023-09-30T09:07:03;96901.84;;;19.41;59.87
46001;BME280;72226;48.272;11.180;2023-09-30T09:09:29;96898.22;;;19.00;59.93
46001;BME280;72226;48.272;11.180;2023-09-30T09:11:54;96889.81;;;19.05;60.29
46001;BME280;72226;48.272;11.180;2023-09-30T09:14:40;96892.09;;;19.03;59.98
46001;BME280;72226;48.272;11.180;2023-09-30T09:17:11;96883.25;;;18.94;61.00
46001;BME280;72226;48.272;11.180;2023-09-30T09:19:36;96889.38;;;18.91;60.30
46001;BME280;72226;48.272;11.180;2023-09-30T09:22:03;96891.31;;;18.69;61.08
46001;BME280;72226;48.272;11.180;2023-09-30T09:24:34;96896.03;;;18.60;61.84
46001;BME280;72226;48.272;11.180;2023-09-30T09:27:09;96885.16;;;18.81;61.40
46001;BME280;72226;48.272;11.180;2023-09-30T09:29:36;96886.09;;;19.10;61.33
46001;BME280;72226;48.272;11.180;2023-09-30T09:32:12;96891.31;;;19.27;59.72
46001;BME280;72226;48.272;11.180;2023-09-30T09:34:39;96880.09;;;19.04;59.82
46001;BME280;72226;48.272;11.180;2023-09-30T09:37:18;96874.31;;;19.30;59.93
46001;BME280;72226;48.272;11.180;2023-09-30T09:39:56;96865.94;;;19.48;59.83
46001;BME280;72226;48.272;11.180;2023-09-30T09:42:32;96865.56;;;19.74;58.67
46001;BME280;72226;48.272;11.180;2023-09-30T09:45:00;96858.56;;;19.48;58.90
46001;BME280;72226;48.272;11.180;2023-09-30T09:47:26;96863.66;;;18.88;59.24
46001;BME280;72226;48.272;11.180;2023-09-30T09:49:52;96863.78;;;19.29;58.64
46001;BME280;72226;48.272;11.180;2023-09-30T09:52:19;96876.94;;;19.14;60.17
46001;BME280;72226;48.272;11.180;2023-09-30T09:54:45;96879.63;;;19.02;59.35
46001;BME280;72226;48.272;11.180;2023-09-30T09:57:12;96876.47;;;19.25;58.91
46001;BME280;72226;48.272;11.180;2023-09-30T09:59:38;96867.84;;;19.10;59.38
46001;BME280;72226;48.272;11.180;2023-09-30T10:02:10;96863.56;;;19.34;59.50
46001;BME280;72226;48.272;11.180;2023-09-30T10:04:37;96862.75;;;19.46;58.91
46001;BME280;72226;48.272;11.180;2023-09-30T10:07:04;96860.38;;;19.56;58.15
46001;BME280;72226;48.272;11.180;2023-09-30T10:09:34;96857.03;;;19.88;57.55
46001;BME280;72226;48.272;11.180;2023-09-30T10:12:01;96858.44;;;19.69;57.16
46001;BME280;72226;48.272;11.180;2023-09-30T10:14:30;96864.09;;;19.76;57.35
46001;BME280;72226;48.272;11.180;2023-09-30T10:16:57;96864.44;;;19.75;57.45
46001;BME280;72226;48.272;11.180;2023-09-30T10:19:23;96856.75;;;19.65;57.73
46001;BME280;72226;48.272;11.180;2023-09-30T10:24:46;96847.53;;;19.81;57.59
46001;BME280;72226;48.272;11.180;2023-09-30T10:30:14;96841.44;;;20.00;56.88
46001;BME280;72226;48.272;11.180;2023-09-30T10:35:41;96853.69;;;19.66;57.58
46001;BME280;72226;48.272;11.180;2023-09-30T10:40:48;96861.50;;;19.68;57.86
46001;BME280;72226;48.272;11.180;2023-09-30T10:43:30;96858.06;;;19.95;56.64
46001;BME280;72226;48.272;11.180;2023-09-30T10:45:59;96850.97;;;20.06;58.39
46001;BME280;72226;48.272;11.180;2023-09-30T10:51:00;96853.25;;;20.04;57.39
46001;BME280;72226;48.272;11.180;2023-09-30T10:53:27;96845.41;;;19.75;56.17
46001;BME280;72226;48.272;11.180;2023-09-30T10:56:00;96849.25;;;19.74;54.16
46001;BME280;72226;48.272;11.180;2023-09-30T11:01:09;96840.56;;;19.96;53.70
46001;BME280;72226;48.272;11.180;2023-09-30T11:03:35;96831.41;;;19.89;54.23
46001;BME280;72226;48.272;11.180;2023-09-30T11:06:02;96834.50;;;19.75;55.10
46001;BME280;72226;48.272;11.180;2023-09-30T11:08:29;96835.72;;;19.90;55.25
46001;BME280;72226;48.272;11.180;2023-09-30T11:10:55;96828.19;;;19.99;56.25
46001;BME280;72226;48.272;11.180;2023-09-30T11:13:22;96842.91;;;19.70;56.29
46001;BME280;72226;48.272;11.180;2023-09-30T11:15:47;96843.78;;;19.74;56.60
46001;BME280;72226;48.272;11.180;2023-09-30T11:18:14;96841.19;;;19.77;56.27
46001;BME280;72226;48.272;11.180;2023-09-30T11:20:40;96848.75;;;19.96;55.57
46001;BME280;72226;48.272;11.180;2023-09-30T11:23:06;96845.28;;;20.12;53.46
46001;BME280;72226;48.272;11.180;2023-09-30T11:25:35;96848.09;;;20.15;52.75
46001;BME280;72226;48.272;11.180;2023-09-30T11:28:16;96851.66;;;20.03;54.00
46001;BME280;72226;48.272;11.180;2023-09-30T11:30:58;96857.22;;;19.95;53.13
46001;BME280;72226;48.272;11.180;2023-09-30T11:33:23;96853.72;;;19.94;53.85
46001;BME280;72226;48.272;11.180;2023-09-30T11:36:05;96844.72;;;20.06;55.36
46001;BME280;72226;48.272;11.180;2023-09-30T11:38:32;96850.44;;;20.29;54.47
46001;BME280;72226;48.272;11.180;2023-09-30T11:41:01;96841.81;;;20.27;53.29
46001;BME280;72226;48.272;11.180;2023-09-30T11:43:29;96828.53;;;20.54;53.64
46001;BME280;72226;48.272;11.180;2023-09-30T11:48:30;96813.97;;;20.62;54.94
46001;BME280;72226;48.272;11.180;2023-09-30T11:50:58;96805.16;;;20.68;55.24
46001;BME280;72226;48.272;11.180;2023-09-30T11:53:25;96810.19;;;20.38;58.90
46001;BME280;72226;48.272;11.180;2023-09-30T11:55:51;96813.63;;;20.51;55.95
46001;BME280;72226;48.272;11.180;2023-09-30T11:58:20;96809.75;;;20.64;53.60
46001;BME280;72226;48.272;11.180;2023-09-30T12:00:45;96808.06;;;20.60;54.75
46001;BME280;72226;48.272;11.180;2023-09-30T12:03:11;96796.50;;;20.50;53.70
46001;BME280;72226;48.272;11.180;2023-09-30T12:05:36;96792.53;;;20.32;55.36
46001;BME280;72226;48.272;11.180;2023-09-30T12:08:02;96790.06;;;20.43;54.54
46001;BME280;72226;48.272;11.180;2023-09-30T12:10:27;96787.97;;;20.36;52.78
46001;BME280;72226;48.272;11.180;2023-09-30T12:12:53;96791.03;;;20.35;53.32
46001;BME280;72226;48.272;11.180;2023-09-30T12:15:18;96801.91;;;20.19;55.05
46001;BME280;72226;48.272;11.180;2023-09-30T12:17:47;96798.81;;;20.04;53.88
46001;BME280;72226;48.272;11.180;2023-09-30T12:20:12;96799.78;;;20.12;53.40
46001;BME280;72226;48.272;11.180;2023-09-30T12:22:40;96795.13;;;20.13;53.63
46001;BME280;72226;48.272;11.180;2023-09-30T12:25:06;96796.09;;;19.92;53.81
46001;BME280;72226;48.272;11.180;2023-09-30T12:27:34;96787.22;;;19.79;54.68
46001;BME280;72226;48.272;11.180;2023-09-30T12:29:59;96790.47;;;19.85;52.74
46001;BME280;72226;48.272;11.180;2023-09-30T12:32:25;96779.94;;;19.83;55.11
46001;BME280;72226;48.272;11.180;2023-09-30T12:34:52;96780.25;;;20.10;52.11
46001;BME280;72226;48.272;11.180;2023-09-30T12:37:18;96779.31;;;20.18;51.38
46001;BME280;72226;48.272;11.180;2023-09-30T12:39:43;96780.09;;;20.19;49.96
46001;BME280;72226;48.272;11.180;2023-09-30T12:42:10;96774.66;;;20.19;51.65
46001;BME280;72226;48.272;11.180;2023-09-30T12:44:37;96771.94;;;20.19;50.35
46001;BME280;72226;48.272;11.180;2023-09-30T12:47:04;96773.47;;;20.32;52.45
46001;BME280;72226;48.272;11.180;2023-09-30T12:49:30;96772.69;;;20.47;50.42
46001;BME280;72226;48.272;11.180;2023-09-30T12:51:56;96781.50;;;20.72;50.00
46001;BME280;72226;48.272;11.180;2023-09-30T12:54:23;96785.63;;;20.98;47.85
46001;BME280;72226;48.272;11.180;2023-09-30T12:56:49;96792.03;;;21.06;50.22
46001;BME280;72226;48.272;11.180;2023-09-30T12:59:16;96796.88;;;20.96;49.53
46001;BME280;72226;48.272;11.180;2023-09-30T13:01:43;96796.34;;;20.91;51.40
46001;BME280;72226;48.272;11.180;2023-09-30T13:04:08;96797.44;;;20.86;51.24
46001;BME280;72226;48.272;11.180;2023-09-30T13:06:34;96800.31;;;20.78;52.38
46001;BME280;72226;48.272;11.180;2023-09-30T13:09:01;96794.34;;;20.72;51.63
46001;BME280;72226;48.272;11.180;2023-09-30T13:11:26;96789.34;;;20.74;51.95